Chlef Aboubakr Belkaid International Airport

DAOI · Chlef, 阿尔及利亚

METAR的历史 DAOI · Ech Cheliff Airport

下面你可以看到过去几天的METARs。 选择年份以浏览从2007年开始的旧METAR。

2022年12月8日

时间 代码 天气 温度 能见度 天花板 METAR/SPECI
07:00
V
10 °C 10 km+ - 070° 070° 6 kt METAR DAOI 080600Z 07006KT CAVOK 10/06 Q1010
06:00
V
10 °C 10 km+ - 070° 070° 5 kt METAR DAOI 080500Z 07005KT CAVOK 10/06 Q1011
05:00
V
11 °C 10 km+ - 070° 070° 6 kt METAR DAOI 080400Z 07006KT CAVOK 11/07 Q1011
04:00
V
11 °C 10 km+ - 070° 070° 6 kt METAR DAOI 080300Z 07006KT CAVOK 11/06 Q1011
03:00
V
13 °C 10 km+ - 050° 050° 6 kt METAR DAOI 080200Z 05006KT CAVOK 13/07 Q1011
02:00
V
12 °C 10 km+ - 070° 070° 7 kt METAR DAOI 080100Z 07007KT CAVOK 12/07 Q1012
01:00
V
12 °C 10 km+ - 070° 070° 6 kt METAR DAOI 080000Z 07006KT CAVOK 12/06 Q1012
00:00
V
13 °C 10 km+ - 050° 050° 6 kt METAR DAOI 072300Z 05006KT CAVOK 13/07 Q1012

2022年12月7日

时间 代码 天气 温度 能见度 天花板 METAR/SPECI
23:00
V
14 °C 10 km+ - 070° 070° 8 kt METAR DAOI 072200Z 07008KT CAVOK 14/07 Q1012
22:00
V
13 °C 10 km+ - 070° 070° 7 kt METAR DAOI 072100Z 07007KT CAVOK 13/07 Q1013
21:00
V
14 °C 10 km+ - 050° 050° 4 kt METAR DAOI 072000Z 05004KT CAVOK 14/07 Q1013
20:00
V
16 °C 10 km+ - 040° 040° 4 kt METAR DAOI 071900Z 04004KT CAVOK 16/07 Q1013
19:00
V
16 °C 10 km+ - 020° 020° 4 kt METAR DAOI 071800Z 02004KT CAVOK 16/06 Q1013
18:00
V
17 °C 10 km+ - 350° 350° 3 kt METAR DAOI 071700Z 35003KT CAVOK 17/07 Q1013
17:00
V
19 °C 10 km+ - Var 000° 0 kt METAR DAOI 071600Z 00000KT 9999 FEW030 SCT100 19/06 Q1013
16:00
V
20 °C 10 km+ 10.000 ft Var Var 2 kt METAR DAOI 071500Z VRB02KT 9999 FEW030 BKN100 20/07 Q1013
15:00
V
20 °C 10 km+ 10.000 ft Var Var 2 kt METAR DAOI 071400Z VRB02KT 9999 FEW030 BKN100 20/08 Q1014
14:00
V
19 °C 10 km+ 10.000 ft Var Var 2 kt METAR DAOI 071300Z VRB02KT 9999 FEW030 BKN100 19/08 Q1014
13:00
V
18 °C 10 km+ 23.300 ft Var Var 2 kt METAR DAOI 071200Z VRB02KT 9999 SCT030 BKN233 18/08 Q1015
12:00
V
16 °C 10 km+ 23.300 ft 080° 080° 4 kt METAR DAOI 071100Z 08004KT 060V120 9999 SCT030 BKN233 16/10 Q1016
11:00
V
16 °C 10 km+ 23.300 ft 070° 070° 4 kt METAR DAOI 071000Z 07004KT 9999 FEW030 SCT100 BKN233 16/11 Q1017
10:00
V
13 °C 10 km+ - 060° 060° 3 kt METAR DAOI 070900Z 06003KT 9999 SCT030 SCT233 13/12 Q1017
09:00
V
12 °C 10 km+ - 070° 070° 3 kt METAR DAOI 070800Z 07003KT 030V100 9999 SCT030 SCT100 12/10 Q1017
08:00
V
11 °C 10 km+ - Var 000° 0 kt METAR DAOI 070700Z 00000KT 9999 FEW030 SCT100 11/09 Q1017
07:00
V
12 °C 10 km+ - Var 000° 0 kt METAR DAOI 070600Z 00000KT 9999 FEW030 SCT100 12/11 Q1016
06:00
V
13 °C 10 km+ - Var Var 2 kt METAR DAOI 070500Z VRB02KT 9999 SCT030 SCT100 13/11 Q1016
05:00
V
14 °C 10 km+ - 250° 250° 5 kt METAR DAOI 070400Z 25005KT 9999 SCT030 SCT100 14/11 Q1017
04:00
V
14 °C 10 km+ - 270° 270° 3 kt METAR DAOI 070300Z 27003KT 9999 SCT030 SCT100 14/12 Q1017
03:00
V
14 °C 10 km+ - 230° 230° 4 kt METAR DAOI 070200Z 23004KT 9999 SCT030 SCT100 14/12 Q1017
02:00
V
14 °C 10 km+ - 260° 260° 7 kt METAR DAOI 070100Z 26007KT 9999 SCT030 SCT100 14/12 Q1017
01:00
V
15 °C 10 km+ - 230° 230° 6 kt METAR DAOI 070000Z 23006KT 9999 SCT030 SCT100 15/13 Q1018
00:00
V
14 °C 10 km+ 10.000 ft 250° 250° 4 kt METAR DAOI 062300Z 25004KT 9999 SCT030 BKN100 14/12 Q1018

2022年12月6日

时间 代码 天气 温度 能见度 天花板 METAR/SPECI
23:00
V
15 °C 10 km+ 10.000 ft 240° 240° 5 kt METAR DAOI 062200Z 24005KT 9999 SCT030 BKN100 15/13 Q1018
22:00
V
15 °C 10 km+ 10.000 ft 250° 250° 7 kt METAR DAOI 062100Z 25007KT 9999 SCT030 BKN100 15/13 Q1017
21:00
V
15 °C 10 km+ - 270° 270° 3 kt METAR DAOI 062000Z 27003KT 9999 SCT030 SCT233 15/12 Q1017
20:00
V
15 °C 10 km+ - 240° 240° 4 kt METAR DAOI 061900Z 24004KT 9999 SCT030 SCT233 15/12 Q1017
19:00
V
16 °C 10 km+ - 230° 230° 8 kt METAR DAOI 061800Z 23008KT 9999 SCT030 SCT233 16/11 Q1017
18:00
V
16 °C 10 km+ - Var Var 2 kt METAR DAOI 061700Z VRB02KT 9999 FEW026 SCT030 16/11 Q1016
17:00
V
17 °C 10 km+ - 250° 250° 11 kt METAR DAOI 061600Z 25011KT 9999 FEW020 SCT026 17/11 Q1016
16:00
V
18 °C 10 km+ - 260° 260° 8 kt METAR DAOI 061500Z 26008KT 9999 SCT026 SCT100 18/13 Q1016
14:00
V
19 °C 10 km+ - 240° 240° 6 kt METAR DAOI 061300Z 24006KT 9999 SCT026 19/11 Q1016
13:00
V
18 °C 8 km - Var 000° 0 kt METAR DAOI 061200Z 00000KT 8000 SCT030 SCT100 18/11 Q1016
12:00
M
16 °C 7 km - Var 000° 0 kt METAR DAOI 061100Z 00000KT 7000 SCT030 SCT100 16/13 Q1017
11:00
M
16 °C 7 km - 080° 080° 4 kt METAR DAOI 061000Z 08004KT 7000 SCT030 SCT100 16/12 Q1017
10:00
M
16 °C 6 km - 240° 240° 4 kt METAR DAOI 060900Z 24004KT 6000 -RA SCT030 SCT100 16/12 Q1017
09:00
M
15 °C 6 km - 260° 260° 4 kt METAR DAOI 060800Z 26004KT 6000 -RA SCT030 SCT100 15/10 Q1016
08:00
I
15 °C 4 km - 270° 270° 7 kt METAR DAOI 060700Z 27007KT 4000 HZ SCT030 15/06 Q1015
07:00
I
16 °C 3 km - 240° 240° 5 kt METAR DAOI 060600Z 24005KT 3000 HZ NSC 16/05 Q1015
06:00
I
16 °C 4 km - 060° 060° 4 kt METAR DAOI 060500Z 06004KT 4000 HZ NSC 16/04 Q1013
05:00
I
17 °C 4 km - 060° 060° 4 kt METAR DAOI 060400Z 06004KT 4000 HZ NSC 17/04 Q1013
04:00
I
17 °C 4 km - 060° 060° 3 kt METAR DAOI 060300Z 06003KT 4000 HZ NSC 17/04 Q1013
03:00
I
18 °C 4 km - 280° 280° 3 kt METAR DAOI 060200Z 28003KT 4000 HZ NSC 18/03 Q1013
02:00
I
19 °C 4 km - 270° 270° 4 kt METAR DAOI 060100Z 27004KT 4000 HZ FEW026 SCT100 19/03 Q1013
01:00
I
20 °C 4 km - 240° 240° 3 kt METAR DAOI 060000Z 24003KT 4000 HZ FEW026 SCT100 20/03 Q1013
00:00
M
19 °C 6 km - Var 000° 0 kt METAR DAOI 052300Z 00000KT 6000 FEW026 SCT100 19/03 Q1013

2022年12月5日

时间 代码 天气 温度 能见度 天花板 METAR/SPECI
23:00
M
20 °C 6 km - 060° 060° 3 kt METAR DAOI 052200Z 06003KT 6000 FEW026 20/02 Q1013
22:00
V
20 °C 8 km - 040° 040° 3 kt METAR DAOI 052100Z 04003KT 8000 FEW026 20/03 Q1013
21:00
V
21 °C 9 km - 060° 060° 6 kt METAR DAOI 052000Z 06006KT 9000 FEW026 21/01 Q1013
20:00
V
21 °C 10 km+ - 040° 040° 6 kt METAR DAOI 051900Z 04006KT 9999 FEW026 21/02 Q1012
19:00
V
18 °C 10 km+ - 020° 020° 3 kt METAR DAOI 051800Z 02003KT CAVOK 18/05 Q1012
18:00
V
20 °C 10 km+ - 040° 040° 4 kt METAR DAOI 051700Z 04004KT CAVOK 20/02 Q1012
17:00
V
23 °C 10 km+ - 220° 220° 6 kt METAR DAOI 051600Z 22006KT CAVOK 23/01 Q1013
16:00
V
24 °C 10 km+ - 220° 220° 5 kt METAR DAOI 051500Z 22005KT CAVOK 24/01 Q1013
15:00
V
24 °C 10 km+ - 220° 220° 3 kt METAR DAOI 051400Z 22003KT 9999 FEW026 SCT233 24/02 Q1013
14:00
V
22 °C 10 km+ - 240° 240° 5 kt METAR DAOI 051300Z 24005KT 9999 FEW026 SCT100 22/02 Q1014
13:00
V
21 °C 10 km+ - 060° 060° 3 kt METAR DAOI 051200Z 06003KT 9999 FEW026 SCT100 21/02 Q1015
12:00
V
19 °C 10 km+ - 060° 060° 7 kt METAR DAOI 051100Z 06007KT 9999 FEW026 SCT233 19/02 Q1016
11:00
V
18 °C 10 km+ - 060° 060° 9 kt METAR DAOI 051000Z 06009KT CAVOK 18/03 Q1016

我们和第三方通过cookies跟踪您在我们网站上的互联网行为。如果你继续,我们认为你同意我们的饼干政策